K3L4

Grand Chenier Airport

Grand Chenier, Louisiana, USA
METAR K3L4 171755Z AUTO 04012KT 10SM OVC008 19/17 A3018 RMK A01
Observed Flight Rules
Oct-17 @ 17:55 UTC (29 minutes ago) Instrument Flight Rules
Wind Visibility Clouds
40° at 12 knots 10 miles
  • Overcast at 800' AGL
Temperatures Readings
Current 19°C / 66°F
Dewpoint 17°C / 63°F
Humidity 88%
Altimeter 30.18" Hg
Pressure 1022 hPa
Elevation 2
METAR K3L4 171755Z AUTO 04012KT 10SM OVC008 19/17 A3018 RMK A01
Observed Flight Rules
Oct-17 @ 17:55 UTC
(29 minutes ago)
IFR
Wind Visibility
40° at 12 knots 10 miles
Clouds
  • Overcast at 800' AGL
Temperature Dewpoint
19°C / 66°F 17°C / 63°F
Humidity Altimeter Pressure
88% 30.18" Hg 1022 hPa